Time;durP1;ratioP1;P1;durP2;ratioP2;P2;SDS_P1;SDS_P2;PMS_P1;PMS_P2;Temp;Humidity;BMP_temperature;BMP_pressure;BME280_temperature;BME280_humidity;BME280_pressure;Samples;Min_cycle;Max_cycle;Signal;HPM_P1;HPM_P2
2022/06/05 00:12:12;;;;;;;9.80;5.88;;;;;;;;;;6310677;22;20007;-82
2022/06/05 00:15:04;;;;;;;10.95;6.18;;;;;;;;;;6311042;22;20030;-83
2022/06/05 00:17:33;;;;;;;9.80;5.78;;;;;;;;;;6309601;22;20015;-83
2022/06/05 00:20:05;;;;;;;10.80;6.32;;;;;;;;;;6309555;22;20043;-83
2022/06/05 00:25:57;;;;;;;10.10;5.90;;;;;;;;;;6309475;22;20097;-83
2022/06/05 00:43:37;;;;;;;11.93;5.93;;;;;;;;;;6335940;22;20050;-86
2022/06/05 00:48:02;;;;;;;10.35;6.20;;;;;;;;;;6230106;23;20396;-86
2022/06/05 00:50:31;;;;;;;11.68;6.10;;;;;;;;;;6237716;23;20028;-83
2022/06/05 00:53:23;;;;;;;10.00;6.13;;;;;;;;;;6214911;23;20025;-82
2022/06/05 00:59:13;;;;;;;12.98;6.20;;;;;;;;;;6189824;23;20048;-83
2022/06/05 01:01:42;;;;;;;11.18;6.47;;;;;;;;;;6214278;23;20024;-82
2022/06/05 01:04:09;;;;;;;10.80;6.38;;;;;;;;;;6214108;23;20039;-83
2022/06/05 01:39:10;;;;;;;15.05;6.97;;;;;;;;;;6310088;22;20026;-83
2022/06/05 01:42:26;;;;;;;12.02;6.70;;;;;;;;;;6310748;22;20517;-83
2022/06/05 01:51:02;;;;;;;13.70;6.60;;;;;;;;;;6282961;22;20019;-83
2022/06/05 01:53:53;;;;;;;12.43;7.20;;;;;;;;;;6310410;22;20502;-83
2022/06/05 02:38:37;;;;;;;11.32;5.97;;;;;;;;;;6307357;22;20489;-82
2022/06/05 02:41:45;;;;;;;12.75;6.43;;;;;;;;;;6310988;22;20637;-83
2022/06/05 03:06:35;;;;;;;12.15;6.57;;;;;;;;;;6309992;22;20023;-85
2022/06/05 04:34:22;;;;;;;15.38;7.85;;;;;;;;;;6307050;22;20481;-84
2022/06/05 04:37:48;;;;;;;15.93;8.30;;;;;;;;;;6299239;22;20027;-83
2022/06/05 04:41:21;;;;;;;14.07;7.53;;;;;;;;;;6308791;22;20462;-83
2022/06/05 05:07:07;;;;;;;14.85;8.43;;;;;;;;;;6308463;22;20129;-83
2022/06/05 05:12:59;;;;;;;19.02;9.20;;;;;;;;;;6307618;22;20122;-82
2022/06/05 05:15:41;;;;;;;16.92;9.02;;;;;;;;;;6280645;22;20035;-83
2022/06/05 05:18:49;;;;;;;16.27;7.97;;;;;;;;;;6290148;22;20019;-82
2022/06/05 05:21:31;;;;;;;14.57;8.02;;;;;;;;;;6306567;22;20061;-82
2022/06/05 05:24:07;;;;;;;18.77;8.80;;;;;;;;;;6308294;22;20094;-84
2022/06/05 05:26:41;;;;;;;13.82;7.85;;;;;;;;;;6307861;22;20073;-84
2022/06/05 05:29:09;;;;;;;14.75;8.20;;;;;;;;;;6308768;22;20399;-83
2022/06/05 05:31:41;;;;;;;12.45;7.40;;;;;;;;;;6280238;22;20019;-83
2022/06/05 05:34:14;;;;;;;16.08;9.32;;;;;;;;;;6308329;22;20022;-83
2022/06/05 05:36:45;;;;;;;13.55;7.82;;;;;;;;;;6308918;22;20046;-83
2022/06/05 05:42:47;;;;;;;13.30;7.55;;;;;;;;;;6310393;22;20086;-83
2022/06/05 05:45:16;;;;;;;15.35;8.55;;;;;;;;;;6310935;22;20023;-83
2022/06/05 05:47:49;;;;;;;13.95;7.68;;;;;;;;;;6310290;22;20042;-84
2022/06/05 05:50:21;;;;;;;11.77;6.93;;;;;;;;;;6282945;22;20158;-84
2022/06/05 05:52:49;;;;;;;14.52;6.75;;;;;;;;;;6310331;22;20023;-84
2022/06/05 05:55:21;;;;;;;13.60;7.50;;;;;;;;;;6310081;22;20027;-84
2022/06/05 05:57:49;;;;;;;13.50;7.13;;;;;;;;;;6310396;22;20098;-84
2022/06/05 06:01:07;;;;;;;12.38;6.88;;;;;;;;;;6308362;22;20023;-84
2022/06/05 06:04:13;;;;;;;10.18;5.30;;;;;;;;;;6310864;22;20042;-84
2022/06/05 06:06:53;;;;;;;9.77;6.15;;;;;;;;;;6282263;22;20019;-84
2022/06/05 06:09:25;;;;;;;9.98;5.57;;;;;;;;;;6311182;22;20046;-84
2022/06/05 06:12:05;;;;;;;9.77;5.55;;;;;;;;;;6271584;22;20031;-84
2022/06/05 06:14:40;;;;;;;10.48;5.80;;;;;;;;;;6272866;22;20336;-84
2022/06/05 06:17:47;;;;;;;9.10;5.43;;;;;;;;;;6309325;22;20527;-84
2022/06/05 06:20:39;;;;;;;10.40;5.22;;;;;;;;;;6309647;22;20098;-84
2022/06/05 06:23:25;;;;;;;10.02;5.30;;;;;;;;;;6246722;22;20141;-84
2022/06/05 06:26:12;;;;;;;8.20;5.45;;;;;;;;;;6271592;22;20418;-84
2022/06/05 06:28:59;;;;;;;9.00;4.50;;;;;;;;;;6283587;22;20019;-84
2022/06/05 06:31:44;;;;;;;8.10;4.72;;;;;;;;;;6270378;22;20031;-84
2022/06/05 06:34:21;;;;;;;7.15;4.85;;;;;;;;;;6310323;22;20457;-84
2022/06/05 06:37:03;;;;;;;8.00;4.65;;;;;;;;;;6285611;22;20481;-84
2022/06/05 06:39:51;;;;;;;6.88;4.82;;;;;;;;;;6270297;22;20332;-83
2022/06/05 06:42:34;;;;;;;8.20;4.50;;;;;;;;;;6253868;22;20110;-82
2022/06/05 06:45:06;;;;;;;8.45;4.50;;;;;;;;;;6311976;22;20481;-82
2022/06/05 06:47:39;;;;;;;7.28;4.80;;;;;;;;;;6311181;22;20019;-82
2022/06/05 06:50:07;;;;;;;9.13;4.82;;;;;;;;;;6309412;22;20397;-81
2022/06/05 06:53:01;;;;;;;6.22;4.20;;;;;;;;;;6310874;22;20034;-81
2022/06/05 06:55:53;;;;;;;8.23;4.55;;;;;;;;;;6311676;22;20026;-81
2022/06/05 06:58:27;;;;;;;6.57;4.40;;;;;;;;;;6311020;22;20447;-81
2022/06/05 07:00:55;;;;;;;7.57;4.53;;;;;;;;;;6310072;22;20020;-81
2022/06/05 07:03:23;;;;;;;7.93;4.28;;;;;;;;;;6312214;22;20026;-82
2022/06/05 07:06:17;;;;;;;6.38;4.03;;;;;;;;;;6300175;22;20098;-81
2022/06/05 07:08:45;;;;;;;6.63;3.88;;;;;;;;;;6310713;22;20443;-82
2022/06/05 07:11:37;;;;;;;9.23;3.75;;;;;;;;;;6310064;22;20084;-82
2022/06/05 07:14:09;;;;;;;6.60;3.88;;;;;;;;;;6310436;22;20447;-81
2022/06/05 07:16:38;;;;;;;5.53;3.65;;;;;;;;;;6310094;22;20102;-82
2022/06/05 07:19:05;;;;;;;5.60;3.55;;;;;;;;;;6310268;22;20068;-82
2022/06/05 07:21:33;;;;;;;6.03;3.63;;;;;;;;;;6283646;22;20514;-82
2022/06/05 07:24:01;;;;;;;5.20;3.40;;;;;;;;;;6310974;22;20125;-82
2022/06/05 07:26:31;;;;;;;7.10;3.50;;;;;;;;;;6282634;22;20015;-82
2022/06/05 07:28:59;;;;;;;5.50;3.53;;;;;;;;;;6311579;22;20029;-82
2022/06/05 07:31:29;;;;;;;5.60;3.60;;;;;;;;;;6309765;22;20015;-82
2022/06/05 07:33:59;;;;;;;7.03;3.55;;;;;;;;;;6311006;22;20019;-82
2022/06/05 07:36:28;;;;;;;6.07;3.22;;;;;;;;;;6311462;22;20054;-82
2022/06/05 07:38:56;;;;;;;5.22;3.50;;;;;;;;;;6314178;22;20058;-82
2022/06/05 07:41:36;;;;;;;7.05;3.83;;;;;;;;;;6313739;22;20016;-82
2022/06/05 07:44:05;;;;;;;6.30;3.63;;;;;;;;;;6314306;22;20019;-82
2022/06/05 07:46:35;;;;;;;7.32;4.05;;;;;;;;;;6314741;22;20068;-82
2022/06/05 07:49:04;;;;;;;5.78;3.05;;;;;;;;;;6314986;22;20676;-82
2022/06/05 07:54:26;;;;;;;7.78;3.42;;;;;;;;;;6310992;22;20387;-81
2022/06/05 07:56:56;;;;;;;8.88;4.07;;;;;;;;;;6311816;22;20022;-81
2022/06/05 07:59:27;;;;;;;4.65;3.10;;;;;;;;;;6284861;22;20351;-82
2022/06/05 08:02:30;;;;;;;;;;;;;;;;;;6310314;22;20023;-82
2022/06/05 08:04:57;;;;;;;;;;;;;;;;;;6312475;22;20061;-81
2022/06/05 08:07:29;;;;;;;4.25;3.03;;;;;;;;;;6311679;22;19915;-81
2022/06/05 08:09:57;;;;;;;6.07;3.38;;;;;;;;;;6312509;22;20015;-82
2022/06/05 08:12:51;;;;;;;4.40;3.17;;;;;;;;;;6310035;22;20725;-83
2022/06/05 08:15:19;;;;;;;5.35;2.80;;;;;;;;;;6309443;22;20030;-83
2022/06/05 08:17:47;;;;;;;6.38;3.35;;;;;;;;;;6309581;22;20018;-83
2022/06/05 08:20:17;;;;;;;6.13;3.15;;;;;;;;;;6309486;22;20019;-82
2022/06/05 08:22:55;;;;;;;4.80;2.80;;;;;;;;;;6281982;22;20034;-82
2022/06/05 08:25:23;;;;;;;4.95;2.70;;;;;;;;;;6309277;22;20019;-83
2022/06/05 08:27:51;;;;;;;5.65;2.92;;;;;;;;;;6309624;22;20023;-83
2022/06/05 08:30:29;;;;;;;4.68;3.05;;;;;;;;;;6309053;22;20019;-83
2022/06/05 08:32:59;;;;;;;6.57;3.05;;;;;;;;;;6282982;22;20022;-83
2022/06/05 08:35:40;;;;;;;6.07;2.67;;;;;;;;;;6309895;22;20779;-86
2022/06/05 08:43:10;;;;;;;4.97;2.92;;;;;;;;;;6243882;23;20028;-82
2022/06/05 08:46:17;;;;;;;6.03;2.75;;;;;;;;;;6244390;23;20035;-82
2022/06/05 08:48:51;;;;;;;5.22;2.80;;;;;;;;;;6233654;23;20070;-82
2022/06/05 08:51:35;;;;;;;4.50;2.88;;;;;;;;;;6243603;23;20024;-82
2022/06/05 08:54:23;;;;;;;6.35;3.55;;;;;;;;;;6244696;23;20048;-83
2022/06/05 08:57:05;;;;;;;4.70;2.90;;;;;;;;;;6243127;23;20075;-82
2022/06/05 09:00:02;;;;;;;5.05;3.45;;;;;;;;;;6233090;23;20035;-83
2022/06/05 09:03:13;;;;;;;5.90;3.35;;;;;;;;;;6220156;23;20028;-83
2022/06/05 09:05:45;;;;;;;4.70;3.10;;;;;;;;;;6243349;23;20039;-82
2022/06/05 09:08:31;;;;;;;6.10;2.83;;;;;;;;;;6207447;23;20042;-81
2022/06/05 09:11:56;;;;;;;4.15;2.80;;;;;;;;;;6273958;22;20027;-82
2022/06/05 09:14:47;;;;;;;4.82;2.75;;;;;;;;;;6286619;22;20018;-83
2022/06/05 09:17:18;;;;;;;4.13;2.97;;;;;;;;;;6311438;22;20030;-82
2022/06/05 09:20:17;;;;;;;6.10;2.83;;;;;;;;;;6312068;22;20019;-83
2022/06/05 09:22:57;;;;;;;6.10;2.75;;;;;;;;;;6310878;22;20015;-83
2022/06/05 09:26:32;;;;;;;5.95;2.92;;;;;;;;;;6312249;22;20076;-84
2022/06/05 09:29:35;;;;;;;4.10;2.90;;;;;;;;;;6312859;22;20355;-83
2022/06/05 09:32:43;;;;;;;3.88;2.58;;;;;;;;;;6301005;22;20092;-84
2022/06/05 09:41:19;;;;;;;4.07;2.63;;;;;;;;;;6277586;22;20062;-87
2022/06/05 09:45:13;;;;;;;5.43;3.10;;;;;;;;;;6175165;23;20028;-85
2022/06/05 09:48:58;;;;;;;6.63;3.25;;;;;;;;;;6175094;23;20048;-84
2022/06/05 09:53:14;;;;;;;5.25;2.65;;;;;;;;;;6176300;23;20533;-87
2022/06/05 10:07:23;;;;;;;3.88;2.20;;;;;;;;;;5988919;23;20179;-84
2022/06/05 10:11:16;;;;;;;5.10;2.70;;;;;;;;;;6039692;23;20184;-84
2022/06/05 10:16:07;;;;;;;4.32;2.42;;;;;;;;;;6022549;23;20022;-85
2022/06/05 10:19:53;;;;;;;4.10;2.30;;;;;;;;;;6029737;23;20031;-84
2022/06/05 10:23:36;;;;;;;4.60;2.40;;;;;;;;;;5944575;24;20135;-84
2022/06/05 10:27:03;;;;;;;4.20;2.58;;;;;;;;;;5980402;23;20027;-86
2022/06/05 10:50:10;;;;;;;4.22;2.20;;;;;;;;;;6023337;23;20760;-85
2022/06/05 10:55:10;;;;;;;3.38;1.90;;;;;;;;;;5981920;23;20044;-85
2022/06/05 10:59:35;;;;;;;3.88;2.25;;;;;;;;;;5981520;24;20179;-85
2022/06/05 11:04:29;;;;;;;4.70;2.25;;;;;;;;;;5936984;24;20169;-84
2022/06/05 11:07:28;;;;;;;3.88;2.22;;;;;;;;;;5932522;24;20028;-84
2022/06/05 11:10:19;;;;;;;3.83;2.13;;;;;;;;;;5908376;24;20017;-83
2022/06/05 11:15:49;;;;;;;3.70;1.98;;;;;;;;;;5897126;24;20650;-83
2022/06/05 11:19:04;;;;;;;4.25;2.20;;;;;;;;;;5926875;24;20029;-83
2022/06/05 11:22:03;;;;;;;3.42;1.60;;;;;;;;;;5871925;24;20026;-86
2022/06/05 11:25:31;;;;;;;3.47;2.00;;;;;;;;;;5901777;24;20084;-84
2022/06/05 11:28:57;;;;;;;3.70;2.20;;;;;;;;;;5936776;24;20047;-85
2022/06/05 11:31:57;;;;;;;4.53;1.92;;;;;;;;;;5985009;23;20043;-87
2022/06/05 11:36:09;;;;;;;3.28;2.00;;;;;;;;;;6070585;23;20030;-87
2022/06/05 11:39:41;;;;;;;2.65;1.60;;;;;;;;;;6141355;23;20100;-87
2022/06/05 11:43:50;;;;;;;4.60;1.75;;;;;;;;;;6173324;23;20087;-87
2022/06/05 11:57:26;;;;;;;2.75;1.70;;;;;;;;;;6028097;23;20071;-88
2022/06/05 12:25:15;;;;;;;2.88;1.50;;;;;;;;;;6154663;23;20488;-87
2022/06/05 12:28:23;;;;;;;2.20;1.20;;;;;;;;;;6195491;23;20032;-85
2022/06/05 12:31:35;;;;;;;3.03;1.40;;;;;;;;;;6264207;22;20023;-85
2022/06/05 12:34:27;;;;;;;2.60;1.10;;;;;;;;;;6312167;22;20495;-84
2022/06/05 12:37:43;;;;;;;2.60;1.50;;;;;;;;;;6254603;22;20331;-83
2022/06/05 12:41:25;;;;;;;5.82;1.73;;;;;;;;;;6287862;22;20019;-86
2022/06/05 12:44:18;;;;;;;3.13;1.48;;;;;;;;;;6280471;22;20034;-83
2022/06/05 12:47:19;;;;;;;2.40;1.30;;;;;;;;;;6286051;22;20007;-83
2022/06/05 12:50:50;;;;;;;2.85;1.48;;;;;;;;;;5112706;27;20410;-92
2022/06/05 12:53:41;;;;;;;3.10;1.60;;;;;;;;;;5110858;28;20452;-93
2022/06/05 12:56:30;;;;;;;3.00;1.75;;;;;;;;;;5095464;28;20434;-95
2022/06/05 12:59:28;;;;;;;3.10;1.80;;;;;;;;;;5094841;28;20040;-95
2022/06/05 13:02:02;;;;;;;4.38;1.60;;;;;;;;;;5069624;28;20059;-95
2022/06/05 13:04:57;;;;;;;2.83;1.53;;;;;;;;;;5077999;28;20079;-96
2022/06/05 13:07:54;;;;;;;5.07;1.40;;;;;;;;;;5093830;28;20036;-94
2022/06/05 13:10:29;;;;;;;2.50;1.50;;;;;;;;;;5110208;28;20541;-93
2022/06/05 13:13:17;;;;;;;3.10;1.75;;;;;;;;;;5093355;28;20068;-93
2022/06/05 13:15:59;;;;;;;4.38;2.00;;;;;;;;;;5076957;28;20048;-96
2022/06/05 13:18:42;;;;;;;2.95;1.35;;;;;;;;;;5077058;28;20086;-95
2022/06/05 13:21:22;;;;;;;2.00;1.30;;;;;;;;;;5093759;28;20074;-96
2022/06/05 13:24:12;;;;;;;2.40;1.17;;;;;;;;;;5093754;28;20039;-96
2022/06/05 13:26:53;;;;;;;3.55;1.30;;;;;;;;;;5110255;28;20432;-93
2022/06/05 13:29:40;;;;;;;2.58;1.20;;;;;;;;;;5094517;28;20119;-94
2022/06/05 13:32:47;;;;;;;2.35;1.25;;;;;;;;;;5109899;28;20031;-95
2022/06/05 13:35:37;;;;;;;3.53;1.40;;;;;;;;;;5093389;28;20131;-96
2022/06/05 13:38:31;;;;;;;2.47;1.40;;;;;;;;;;5095308;28;20085;-96
2022/06/05 13:41:05;;;;;;;2.38;1.40;;;;;;;;;;5077310;28;20044;-96
2022/06/05 13:43:40;;;;;;;3.20;1.50;;;;;;;;;;5077030;28;20048;-96
2022/06/05 13:46:56;;;;;;;2.47;1.10;;;;;;;;;;5079135;28;20050;-96
2022/06/05 13:49:34;;;;;;;1.98;1.20;;;;;;;;;;5077096;28;20531;-96
2022/06/05 13:52:49;;;;;;;1.80;1.10;;;;;;;;;;5097116;28;20040;-96
2022/06/05 13:55:21;;;;;;;2.40;1.10;;;;;;;;;;5084063;27;20057;-96
2022/06/05 13:58:10;;;;;;;5.05;1.40;;;;;;;;;;5044564;28;20142;-83
2022/06/05 14:01:16;;;;;;;7.90;2.20;;;;;;;;;;4998405;28;20050;-84
2022/06/05 14:03:49;;;;;;;3.17;1.48;;;;;;;;;;4993969;28;20053;-84
2022/06/05 14:06:34;;;;;;;2.03;1.25;;;;;;;;;;4994244;28;20050;-85
2022/06/05 14:10:04;;;;;;;2.80;1.52;;;;;;;;;;4987142;28;20037;-85
2022/06/05 14:13:12;;;;;;;4.15;1.50;;;;;;;;;;5007881;28;20058;-85
2022/06/05 14:15:49;;;;;;;2.55;1.40;;;;;;;;;;5002607;28;20049;-84
2022/06/05 14:18:40;;;;;;;2.50;1.30;;;;;;;;;;4985994;28;20121;-85
2022/06/05 14:21:21;;;;;;;2.90;1.38;;;;;;;;;;5002877;28;20526;-84
2022/06/05 14:24:40;;;;;;;1.60;0.98;;;;;;;;;;5001119;28;20542;-85
2022/06/05 14:27:16;;;;;;;2.08;1.20;;;;;;;;;;5002257;28;20156;-86
2022/06/05 14:29:59;;;;;;;2.25;1.10;;;;;;;;;;4990577;28;20540;-85
2022/06/05 14:32:34;;;;;;;2.90;1.30;;;;;;;;;;5029919;28;20099;-83
2022/06/05 14:35:10;;;;;;;2.88;1.30;;;;;;;;;;5041194;28;20080;-84
2022/06/05 14:38:16;;;;;;;2.30;1.20;;;;;;;;;;5042895;28;20687;-84
2022/06/05 14:41:20;;;;;;;2.25;1.30;;;;;;;;;;5040569;28;20056;-84
2022/06/05 14:44:05;;;;;;;2.58;1.30;;;;;;;;;;4981005;28;20145;-84
2022/06/05 14:46:40;;;;;;;4.55;1.67;;;;;;;;;;4978442;28;20050;-84
2022/06/05 14:49:22;;;;;;;3.25;1.17;;;;;;;;;;4981901;28;20170;-84
2022/06/05 14:52:07;;;;;;;9.63;1.67;;;;;;;;;;4983304;28;20097;-84
2022/06/05 14:58:35;;;;;;;2.05;1.17;;;;;;;;;;4906314;29;20164;-85
2022/06/05 15:02:34;;;;;;;3.75;1.35;;;;;;;;;;4905668;29;20526;-84
2022/06/05 15:06:32;;;;;;;2.38;1.30;;;;;;;;;;4848464;29;20113;-85
2022/06/05 15:10:13;;;;;;;3.13;1.23;;;;;;;;;;4834986;29;20152;-85
2022/06/05 15:13:17;;;;;;;2.20;1.20;;;;;;;;;;4848569;29;20456;-85
2022/06/05 15:16:06;;;;;;;3.05;1.45;;;;;;;;;;4805752;29;20359;-84
2022/06/05 15:19:39;;;;;;;2.58;1.40;;;;;;;;;;4883681;29;20144;-85
2022/06/05 15:23:59;;;;;;;4.13;2.10;;;;;;;;;;4846688;29;20053;-86
2022/06/05 15:27:05;;;;;;;;;;;;;;;;;;4850737;29;20069;-85
2022/06/05 15:30:44;;;;;;;4.35;2.35;;;;;;;;;;4866360;29;19947;-85
2022/06/05 15:33:30;;;;;;;4.95;2.33;;;;;;;;;;4867089;29;20101;-85
2022/06/05 15:36:25;;;;;;;3.85;2.33;;;;;;;;;;4864889;29;20057;-86
2022/06/05 15:40:55;;;;;;;5.07;2.92;;;;;;;;;;4883786;29;20651;-85
2022/06/05 15:44:24;;;;;;;4.55;2.20;;;;;;;;;;4885596;29;20066;-86
2022/06/05 15:48:29;;;;;;;5.13;2.50;;;;;;;;;;4876977;29;20075;-86
2022/06/05 15:52:22;;;;;;;4.25;2.30;;;;;;;;;;4881417;29;20049;-87
2022/06/05 15:55:27;;;;;;;3.90;2.58;;;;;;;;;;4852784;29;20049;-85
2022/06/05 15:58:40;;;;;;;4.45;2.38;;;;;;;;;;4888421;29;20062;-84
2022/06/05 16:07:19;;;;;;;4.43;2.50;;;;;;;;;;4849902;29;20137;-87
2022/06/05 16:10:50;;;;;;;3.30;2.20;;;;;;;;;;4885461;29;20135;-85
2022/06/05 16:13:59;;;;;;;4.93;2.50;;;;;;;;;;4885502;29;20139;-85
2022/06/05 16:16:38;;;;;;;6.55;2.45;;;;;;;;;;4885865;29;20060;-85
2022/06/05 16:20:13;;;;;;;4.83;2.40;;;;;;;;;;4902162;29;20051;-85
2022/06/05 16:22:44;;;;;;;4.45;2.35;;;;;;;;;;4885953;29;20171;-84
2022/06/05 16:25:20;;;;;;;3.50;2.20;;;;;;;;;;4884538;29;20084;-84
2022/06/05 16:27:54;;;;;;;5.32;2.30;;;;;;;;;;4901079;29;20052;-84
2022/06/05 16:33:30;;;;;;;4.03;2.50;;;;;;;;;;4947243;28;20062;-84
2022/06/05 16:38:52;;;;;;;6.03;2.70;;;;;;;;;;4991039;28;20483;-84
2022/06/05 16:41:21;;;;;;;4.60;2.20;;;;;;;;;;5012308;28;20495;-84
2022/06/05 16:44:03;;;;;;;8.20;2.40;;;;;;;;;;5030772;28;20041;-84
2022/06/05 16:46:37;;;;;;;3.50;2.22;;;;;;;;;;5032027;28;20154;-83
2022/06/05 16:49:39;;;;;;;5.30;2.55;;;;;;;;;;5032575;28;20040;-83
2022/06/05 16:52:32;;;;;;;3.50;2.35;;;;;;;;;;5030829;28;20434;-83
2022/06/05 16:55:58;;;;;;;4.97;2.63;;;;;;;;;;5032242;28;20043;-83
2022/06/05 16:58:32;;;;;;;4.40;2.67;;;;;;;;;;5033041;28;20092;-83
2022/06/05 17:01:13;;;;;;;5.03;2.80;;;;;;;;;;5029649;28;20037;-83
2022/06/05 17:04:09;;;;;;;4.20;2.28;;;;;;;;;;5029720;28;20033;-83
2022/06/05 17:06:39;;;;;;;6.82;2.70;;;;;;;;;;5032219;28;20088;-83
2022/06/05 17:09:12;;;;;;;5.00;2.70;;;;;;;;;;5030690;28;20041;-83
2022/06/05 17:11:42;;;;;;;6.72;3.20;;;;;;;;;;5030661;28;20340;-82
2022/06/05 17:14:28;;;;;;;6.50;2.60;;;;;;;;;;5029401;28;20098;-83
2022/06/05 17:17:03;;;;;;;4.60;2.63;;;;;;;;;;5027275;28;20041;-82
2022/06/05 17:19:41;;;;;;;5.65;3.22;;;;;;;;;;5048231;28;20064;-83
2022/06/05 17:22:25;;;;;;;4.97;2.80;;;;;;;;;;5033498;28;20060;-83
2022/06/05 17:25:25;;;;;;;4.18;2.40;;;;;;;;;;5035095;28;20045;-82
2022/06/05 17:28:06;;;;;;;7.72;3.17;;;;;;;;;;5032385;28;20044;-83
2022/06/05 17:31:17;;;;;;;5.28;3.08;;;;;;;;;;5031182;28;20087;-82
2022/06/05 17:34:13;;;;;;;4.88;2.95;;;;;;;;;;5033409;28;21760;-82
2022/06/05 17:37:19;;;;;;;7.93;2.80;;;;;;;;;;5035991;28;20044;-82
2022/06/05 17:40:16;;;;;;;5.07;2.83;;;;;;;;;;5036758;28;20410;-82
2022/06/05 17:42:54;;;;;;;7.18;3.08;;;;;;;;;;5051947;28;20040;-83
2022/06/05 17:45:37;;;;;;;6.03;3.05;;;;;;;;;;5051408;28;20053;-83
2022/06/05 17:48:23;;;;;;;5.50;2.80;;;;;;;;;;5047617;28;20151;-83
2022/06/05 17:51:06;;;;;;;5.57;2.90;;;;;;;;;;5034394;28;20065;-83
2022/06/05 17:53:38;;;;;;;5.60;2.83;;;;;;;;;;5037260;28;20040;-83
2022/06/05 17:56:35;;;;;;;5.88;3.17;;;;;;;;;;5037821;28;20574;-83
2022/06/05 17:59:28;;;;;;;4.93;2.97;;;;;;;;;;5039556;28;20721;-83
2022/06/05 18:02:17;;;;;;;4.30;2.53;;;;;;;;;;5042287;28;20049;-83
2022/06/05 18:04:57;;;;;;;5.05;2.75;;;;;;;;;;5034634;28;20048;-83
2022/06/05 18:07:27;;;;;;;5.38;2.75;;;;;;;;;;5033778;28;20119;-83
2022/06/05 18:09:59;;;;;;;5.45;3.20;;;;;;;;;;5035987;28;20582;-84
2022/06/05 18:12:31;;;;;;;6.20;3.25;;;;;;;;;;5033596;28;20121;-83
2022/06/05 18:15:08;;;;;;;7.75;3.15;;;;;;;;;;5035041;28;20082;-83
2022/06/05 18:17:42;;;;;;;6.75;2.63;;;;;;;;;;5033858;28;20068;-83
2022/06/05 18:20:19;;;;;;;4.63;2.80;;;;;;;;;;5035494;28;20756;-83
2022/06/05 18:22:51;;;;;;;5.43;3.15;;;;;;;;;;5033714;28;20041;-84
2022/06/05 18:25:42;;;;;;;5.63;3.15;;;;;;;;;;5034204;28;20087;-84
2022/06/05 18:28:50;;;;;;;5.55;3.10;;;;;;;;;;5034300;28;20910;-84
2022/06/05 18:31:26;;;;;;;5.43;2.70;;;;;;;;;;5047697;28;20057;-84
2022/06/05 18:34:20;;;;;;;6.05;2.85;;;;;;;;;;5037360;28;20948;-84
2022/06/05 18:43:38;;;;;;;4.55;2.83;;;;;;;;;;5035455;28;20395;-85
2022/06/05 18:46:26;;;;;;;5.45;2.60;;;;;;;;;;5019979;28;20919;-84
2022/06/05 18:49:24;;;;;;;5.28;2.70;;;;;;;;;;5019621;28;21388;-85
2022/06/05 18:52:16;;;;;;;4.40;2.63;;;;;;;;;;5022432;28;20474;-84
2022/06/05 18:55:13;;;;;;;9.93;3.00;;;;;;;;;;5042065;28;20441;-85
2022/06/05 18:57:55;;;;;;;5.18;2.72;;;;;;;;;;5038747;28;20087;-84
2022/06/05 19:00:29;;;;;;;6.22;2.85;;;;;;;;;;5035319;28;20813;-85
2022/06/05 19:03:26;;;;;;;5.10;2.40;;;;;;;;;;5017462;28;20148;-85
2022/06/05 19:06:36;;;;;;;6.85;3.17;;;;;;;;;;5048270;28;20134;-85
2022/06/05 19:10:04;;;;;;;8.10;3.10;;;;;;;;;;4959925;28;20050;-84
2022/06/05 19:13:00;;;;;;;4.53;2.60;;;;;;;;;;4976730;28;20047;-81
2022/06/05 19:15:55;;;;;;;4.82;2.72;;;;;;;;;;4962539;28;20050;-83
2022/06/05 19:18:53;;;;;;;7.65;2.80;;;;;;;;;;4962335;28;20055;-83
2022/06/05 19:21:56;;;;;;;6.25;2.92;;;;;;;;;;4960638;28;20405;-82
2022/06/05 19:24:46;;;;;;;4.45;2.72;;;;;;;;;;4947826;28;20058;-83
2022/06/05 19:27:29;;;;;;;4.47;2.50;;;;;;;;;;4962849;28;20117;-83
2022/06/05 19:30:07;;;;;;;6.80;3.00;;;;;;;;;;4961924;28;20626;-84
2022/06/05 19:32:54;;;;;;;4.78;2.70;;;;;;;;;;4948658;28;20063;-83
2022/06/05 19:35:28;;;;;;;4.45;2.55;;;;;;;;;;4962718;28;20063;-83
2022/06/05 19:38:03;;;;;;;5.88;2.70;;;;;;;;;;4942209;28;20049;-83
2022/06/05 19:40:43;;;;;;;5.57;2.90;;;;;;;;;;4974192;28;20058;-83
2022/06/05 19:43:26;;;;;;;4.90;3.17;;;;;;;;;;4966159;28;20654;-84
2022/06/05 19:46:08;;;;;;;7.13;3.10;;;;;;;;;;4981480;28;20424;-84
2022/06/05 19:48:42;;;;;;;8.02;2.78;;;;;;;;;;5037356;28;20095;-83
2022/06/05 19:51:37;;;;;;;;;;;;;;;;;;5040434;28;20048;-83
2022/06/05 19:54:34;;;;;;;4.93;2.40;;;;;;;;;;5034102;28;19986;-84
2022/06/05 20:00:13;;;;;;;4.57;2.85;;;;;;;;;;5032727;28;20124;-84
2022/06/05 20:02:55;;;;;;;6.20;2.80;;;;;;;;;;5046481;28;20045;-84
2022/06/05 20:05:32;;;;;;;5.75;2.53;;;;;;;;;;5034040;28;20044;-84
2022/06/05 20:08:20;;;;;;;4.22;2.53;;;;;;;;;;5032719;28;20053;-83
2022/06/05 20:11:19;;;;;;;4.75;2.72;;;;;;;;;;5035249;28;20122;-83
2022/06/05 20:13:59;;;;;;;6.82;2.97;;;;;;;;;;5047801;28;20103;-84
2022/06/05 20:17:07;;;;;;;4.88;2.80;;;;;;;;;;5031906;28;20495;-84
2022/06/05 20:19:33;;;;;;;5.55;2.83;;;;;;;;;;5030942;28;20853;-85
2022/06/05 20:22:38;;;;;;;5.55;2.92;;;;;;;;;;5032160;28;20052;-84
2022/06/05 20:25:46;;;;;;;5.35;3.13;;;;;;;;;;5031839;28;20056;-83
2022/06/05 20:28:59;;;;;;;5.30;2.92;;;;;;;;;;5032038;28;20051;-84
2022/06/05 20:32:00;;;;;;;6.03;2.70;;;;;;;;;;5020308;28;20040;-84
2022/06/05 20:34:48;;;;;;;5.10;2.90;;;;;;;;;;5047983;28;20436;-84
2022/06/05 20:37:43;;;;;;;9.13;3.10;;;;;;;;;;5044417;28;20361;-83
2022/06/05 20:40:17;;;;;;;6.47;2.65;;;;;;;;;;5033826;28;20052;-83
2022/06/05 20:42:56;;;;;;;5.35;2.90;;;;;;;;;;5031155;28;20045;-83
2022/06/05 20:45:33;;;;;;;5.32;2.80;;;;;;;;;;5032140;28;20117;-83
2022/06/05 20:48:18;;;;;;;5.15;2.95;;;;;;;;;;5032703;28;20056;-83
2022/06/05 20:51:01;;;;;;;6.00;3.28;;;;;;;;;;5032638;28;20044;-83
2022/06/05 20:53:32;;;;;;;5.97;2.65;;;;;;;;;;5033911;28;20045;-83
2022/06/05 20:56:02;;;;;;;6.07;3.35;;;;;;;;;;5031285;28;20041;-83
2022/06/05 20:59:03;;;;;;;5.03;3.05;;;;;;;;;;5047660;28;20073;-83
2022/06/05 21:02:05;;;;;;;7.43;3.10;;;;;;;;;;5032176;28;20037;-84
2022/06/05 21:07:58;;;;;;;8.82;3.53;;;;;;;;;;5011673;28;20449;-83
2022/06/05 21:16:55;;;;;;;7.72;3.38;;;;;;;;;;5012193;28;20046;-84
2022/06/05 21:20:35;;;;;;;5.70;3.63;;;;;;;;;;5014350;28;20069;-85
2022/06/05 21:23:25;;;;;;;6.35;3.25;;;;;;;;;;4964912;28;20986;-85
2022/06/05 21:26:11;;;;;;;6.45;3.53;;;;;;;;;;4951977;28;20116;-85
2022/06/05 21:29:01;;;;;;;7.60;4.35;;;;;;;;;;4965793;28;20309;-85
2022/06/05 21:32:28;;;;;;;6.63;4.38;;;;;;;;;;4946851;28;20236;-85
2022/06/05 21:35:51;;;;;;;6.70;3.47;;;;;;;;;;4947624;28;20484;-85
2022/06/05 21:39:16;;;;;;;6.47;3.88;;;;;;;;;;4964237;28;20056;-86
2022/06/05 21:43:26;;;;;;;6.72;4.05;;;;;;;;;;4943521;28;20069;-86
2022/06/05 21:47:33;;;;;;;7.53;3.50;;;;;;;;;;4979895;28;20054;-86
2022/06/05 21:51:20;;;;;;;8.27;3.67;;;;;;;;;;4982137;28;20487;-85
2022/06/05 21:54:01;;;;;;;6.10;4.25;;;;;;;;;;4984262;28;20061;-85
2022/06/05 21:56:52;;;;;;;6.95;4.22;;;;;;;;;;4990009;28;20136;-85
2022/06/05 21:59:33;;;;;;;6.38;4.18;;;;;;;;;;5012408;28;20050;-85
2022/06/05 22:03:24;;;;;;;6.07;3.88;;;;;;;;;;5008805;28;20152;-85
2022/06/05 22:20:05;;;;;;;7.07;4.00;;;;;;;;;;5013245;28;20111;-87
2022/06/05 22:23:49;;;;;;;7.07;4.00;;;;;;;;;;5008194;28;20050;-86
2022/06/05 22:27:45;;;;;;;5.63;3.80;;;;;;;;;;4937234;28;20124;-83
2022/06/05 22:30:16;;;;;;;10.00;4.47;;;;;;;;;;4934872;28;20082;-85
2022/06/05 22:33:26;;;;;;;7.45;4.45;;;;;;;;;;4942877;28;20051;-84
2022/06/05 22:36:08;;;;;;;6.38;3.95;;;;;;;;;;4936210;28;20127;-85
2022/06/05 22:39:16;;;;;;;;;;;;;;;;;;4944386;28;20067;-85
2022/06/05 22:42:07;;;;;;;6.90;4.30;;;;;;;;;;4936973;28;19922;-85
2022/06/05 22:45:02;;;;;;;8.30;4.53;;;;;;;;;;4937629;28;20070;-84
2022/06/05 22:47:31;;;;;;;6.03;4.30;;;;;;;;;;4953211;28;20083;-84
2022/06/05 22:50:15;;;;;;;9.13;4.75;;;;;;;;;;4935465;28;20059;-84
2022/06/05 22:52:57;;;;;;;6.68;4.85;;;;;;;;;;4951615;28;20110;-84
2022/06/05 22:55:57;;;;;;;7.35;4.45;;;;;;;;;;4938755;28;20047;-85
2022/06/05 22:58:41;;;;;;;8.13;5.22;;;;;;;;;;4965085;28;20097;-84
2022/06/05 23:01:49;;;;;;;9.77;4.78;;;;;;;;;;4981480;28;20077;-86
2022/06/05 23:04:55;;;;;;;7.32;4.97;;;;;;;;;;5035798;28;20057;-85
2022/06/05 23:07:37;;;;;;;8.82;4.72;;;;;;;;;;5039608;28;20061;-84
2022/06/05 23:10:26;;;;;;;6.40;4.70;;;;;;;;;;5036051;28;20041;-85
2022/06/05 23:13:20;;;;;;;9.85;5.25;;;;;;;;;;5041930;28;20052;-84
2022/06/05 23:16:14;;;;;;;6.55;4.60;;;;;;;;;;5029413;28;20137;-83
2022/06/05 23:51:13;;;;;;;9.15;5.93;;;;;;;;;;5036296;28;20052;-86
2022/06/05 23:56:03;;;;;;;11.02;6.88;;;;;;;;;;5035917;28;20082;-86
